Time;durP1;ratioP1;P1;durP2;ratioP2;P2;SDS_P1;SDS_P2;PMS_P1;PMS_P2;Temp;Humidity;BMP_temperature;BMP_pressure;BME280_temperature;BME280_humidity;BME280_pressure;Samples;Min_cycle;Max_cycle;Signal;HPM_P1;HPM_P2
2022/05/04 00:00:50;;;;;;;5.57;3.87;;;;;;;6.30;100.00;61476.50;5094647;28;20565;-73
2022/05/04 00:03:17;;;;;;;4.10;3.10;;;;;;;6.36;100.00;61482.91;5094405;28;20502;-72
2022/05/04 00:05:49;;;;;;;3.57;2.77;;;;;;;6.28;100.00;61474.88;5094443;28;20448;-72
2022/05/04 00:08:15;;;;;;;4.07;2.50;;;;;;;5.96;100.00;61441.31;5094506;28;20537;-73
2022/05/04 00:10:43;;;;;;;4.80;3.30;;;;;;;5.85;100.00;61434.63;5094291;28;20498;-72
2022/05/04 00:13:11;;;;;;;7.17;3.60;;;;;;;5.94;100.00;61436.09;5094501;28;20940;-72
2022/05/04 00:15:37;;;;;;;4.27;3.67;;;;;;;5.98;100.00;61443.44;5094993;28;20510;-72
2022/05/04 00:18:04;;;;;;;8.00;3.30;;;;;;;5.95;100.00;61440.25;5094500;28;20966;-72
2022/05/04 00:20:31;;;;;;;4.57;3.30;;;;;;;5.93;100.00;61437.56;5094644;28;20554;-72
2022/05/04 00:23:00;;;;;;;6.07;3.33;;;;;;;6.05;100.00;61452.91;5094296;28;20499;-71
2022/05/04 00:25:27;;;;;;;4.70;3.43;;;;;;;5.97;100.00;61439.31;5094280;28;20541;-72
2022/05/04 00:27:54;;;;;;;3.53;3.10;;;;;;;5.89;100.00;61438.91;5094265;28;20868;-73
2022/05/04 00:30:21;;;;;;;4.93;3.20;;;;;;;5.82;100.00;61431.41;5094432;28;20445;-73
2022/05/04 00:32:48;;;;;;;3.07;2.73;;;;;;;5.79;100.00;61425.69;5094166;28;20477;-72
2022/05/04 00:35:14;;;;;;;6.93;3.23;;;;;;;5.73;100.00;61416.78;5093964;28;20513;-73
2022/05/04 00:37:42;;;;;;;4.60;3.30;;;;;;;5.50;100.00;61394.25;5094075;28;20434;-72
2022/05/04 00:40:11;;;;;;;4.60;3.20;;;;;;;5.26;100.00;61361.09;5094064;28;20923;-72
2022/05/04 00:42:38;;;;;;;6.53;3.70;;;;;;;5.84;100.00;61425.44;5093868;28;20450;-71
2022/05/04 00:45:05;;;;;;;4.40;3.23;;;;;;;5.82;100.00;61428.88;5093911;28;20444;-73
2022/05/04 00:47:32;;;;;;;3.67;3.13;;;;;;;5.90;100.00;61434.91;5093649;28;20499;-72
2022/05/04 00:50:04;;;;;;;5.73;3.53;;;;;;;5.87;100.00;61431.19;5093616;28;20942;-72
2022/05/04 00:52:32;;;;;;;6.93;3.47;;;;;;;4.81;100.00;61323.78;5093532;28;20446;-72
2022/05/04 00:55:01;;;;;;;4.77;3.30;;;;;;;6.13;100.00;61458.38;5093731;28;20437;-73
2022/05/04 01:00:17;;;;;;;5.30;3.53;;;;;;;6.07;100.00;61451.97;5093405;28;20533;-72
2022/05/04 01:02:44;;;;;;;4.43;3.83;;;;;;;6.06;100.00;61450.91;5093414;28;20438;-72
2022/05/04 01:05:12;;;;;;;3.90;3.13;;;;;;;6.04;100.00;61453.84;5093509;28;20445;-73
2022/05/04 01:07:40;;;;;;;5.77;3.20;;;;;;;4.95;100.00;61333.66;5093465;28;20952;-73
2022/05/04 01:10:08;;;;;;;4.17;2.90;;;;;;;5.87;100.00;61429.19;5093105;28;20968;-72
2022/05/04 01:12:36;;;;;;;3.90;3.00;;;;;;;5.85;100.00;61427.06;5093250;28;20952;-72
2022/05/04 01:15:05;;;;;;;5.30;2.90;;;;;;;5.87;100.00;61436.78;5093075;28;21020;-72
2022/05/04 01:17:32;;;;;;;4.73;2.80;;;;;;;5.85;100.00;61424.53;5093261;28;20532;-73
2022/05/04 01:19:59;;;;;;;3.90;2.93;;;;;;;5.73;100.00;61416.78;5092916;28;21071;-73
2022/05/04 01:22:27;;;;;;;4.90;3.13;;;;;;;5.69;100.00;61411.97;5093151;28;20441;-72
2022/05/04 01:24:54;;;;;;;5.30;2.97;;;;;;;5.71;100.00;61411.56;5092896;28;20462;-72
2022/05/04 01:27:25;;;;;;;5.70;3.60;;;;;;;5.76;100.00;61419.97;5092852;28;20866;-71
2022/05/04 01:29:52;;;;;;;3.80;3.17;;;;;;;5.59;100.00;61401.31;5093227;28;20506;-73
2022/05/04 01:32:21;;;;;;;5.30;3.00;;;;;;;5.67;100.00;61410.38;5093357;28;20510;-71
2022/05/04 01:34:48;;;;;;;4.73;3.17;;;;;;;5.66;100.00;61409.31;5092980;28;20473;-71
2022/05/04 01:37:15;;;;;;;4.90;3.53;;;;;;;5.60;100.00;61402.38;5093030;28;20450;-72
2022/05/04 01:39:43;;;;;;;4.43;3.70;;;;;;;5.62;100.00;61405.03;5094469;28;20477;-73
2022/05/04 01:42:13;;;;;;;4.40;3.20;;;;;;;5.74;100.00;61415.31;5094431;28;20442;-72
2022/05/04 01:44:42;;;;;;;5.27;3.27;;;;;;;5.58;100.00;61400.78;5096676;28;20529;-72
2022/05/04 01:47:09;;;;;;;4.47;3.30;;;;;;;5.72;100.00;61415.69;5092752;28;20442;-72
2022/05/04 01:49:37;;;;;;;4.40;3.60;;;;;;;5.43;100.00;61389.84;5092918;28;20472;-72
2022/05/04 01:52:04;;;;;;;5.20;3.63;;;;;;;5.76;100.00;61417.44;5092360;28;20450;-74
2022/05/04 01:54:31;;;;;;;5.20;3.27;;;;;;;5.56;100.00;61398.66;5091663;28;20483;-71
2022/05/04 01:56:59;;;;;;;4.83;3.70;;;;;;;5.56;100.00;61400.63;5092257;28;20462;-72
2022/05/04 01:59:27;;;;;;;4.57;3.23;;;;;;;5.57;100.00;61402.25;5091980;28;20450;-73
2022/05/04 02:01:54;;;;;;;4.27;3.30;;;;;;;5.63;100.00;61408.63;5092138;28;20438;-72
2022/05/04 02:04:22;;;;;;;5.70;3.30;;;;;;;4.90;100.00;61323.28;5092187;28;20454;-72
2022/05/04 02:06:52;;;;;;;8.67;3.20;;;;;;;5.49;100.00;61391.19;5092606;28;20500;-72
2022/05/04 02:09:19;;;;;;;4.53;3.30;;;;;;;5.51;100.00;61390.25;5091983;28;20816;-73
2022/05/04 02:11:45;;;;;;;3.90;3.50;;;;;;;5.55;100.00;61397.59;5092340;28;20446;-74
2022/05/04 02:14:13;;;;;;;5.70;3.67;;;;;;;5.55;100.00;61400.13;5091878;28;20841;-72
2022/05/04 02:16:40;;;;;;;5.10;3.57;;;;;;;4.70;100.00;61304.50;5092459;28;20434;-71
2022/05/04 02:19:07;;;;;;;6.57;3.53;;;;;;;4.82;100.00;61325.38;5092028;28;20450;-72
2022/05/04 02:21:34;;;;;;;8.33;3.57;;;;;;;5.20;100.00;61355.22;5091834;28;20566;-72
2022/05/04 02:24:00;;;;;;;5.73;3.77;;;;;;;5.24;100.00;61367.06;5091546;28;20531;-72
2022/05/04 02:26:27;;;;;;;4.63;3.33;;;;;;;5.18;100.00;61360.69;5091877;28;20519;-73
2022/05/04 02:28:54;;;;;;;3.87;3.40;;;;;;;5.09;100.00;61348.56;5091948;28;20453;-72
2022/05/04 02:31:22;;;;;;;5.20;3.37;;;;;;;5.16;100.00;61356.03;5091780;28;20450;-72
2022/05/04 02:33:49;;;;;;;5.87;3.73;;;;;;;5.07;100.00;61346.97;5092061;28;20871;-71
2022/05/04 02:39:00;;;;;;;4.50;3.60;;;;;;;4.98;100.00;61336.84;5091847;28;20424;-72
2022/05/04 02:41:27;;;;;;;5.50;3.80;;;;;;;5.11;100.00;61353.22;5091492;28;20488;-71
2022/05/04 02:43:53;;;;;;;17.67;7.17;;;;;;;5.08;100.00;61344.97;5091408;28;20437;-73
2022/05/04 02:46:23;;;;;;;6.03;3.90;;;;;;;5.08;100.00;61347.50;5091291;28;20442;-72
2022/05/04 02:48:50;;;;;;;9.83;4.80;;;;;;;5.21;100.00;61361.34;5091406;28;20441;-72
2022/05/04 02:51:17;;;;;;;7.50;3.60;;;;;;;5.29;100.00;61367.34;5090143;28;20972;-71
2022/05/04 02:53:43;;;;;;;9.87;3.77;;;;;;;5.23;100.00;61363.50;5091415;28;20498;-72
2022/05/04 02:56:13;;;;;;;9.03;4.10;;;;;;;5.25;100.00;61365.63;5091206;28;20833;-72
2022/05/04 02:58:40;;;;;;;5.97;4.03;;;;;;;5.19;100.00;61356.16;5091603;28;20835;-74
2022/05/04 03:03:53;;;;;;;6.97;3.60;;;;;;;5.24;100.00;61367.06;5091160;28;20430;-71
2022/05/04 03:06:20;;;;;;;6.97;4.00;;;;;;;4.53;100.00;61293.97;5091359;28;20444;-73
2022/05/04 03:08:47;;;;;;;10.00;4.50;;;;;;;5.18;100.00;61355.09;5091310;28;20499;-73
2022/05/04 03:13:58;;;;;;;12.43;6.67;;;;;;;5.30;100.00;61370.41;5091441;28;20425;-72
2022/05/04 03:16:25;;;;;;;15.00;9.53;;;;;;;5.27;100.00;61367.22;5091281;28;20445;-73
2022/05/04 03:18:53;;;;;;;12.73;6.93;;;;;;;5.10;100.00;61352.16;5091468;28;20441;-73
2022/05/04 03:21:20;;;;;;;11.63;7.00;;;;;;;5.17;100.00;61354.03;5090718;28;20485;-73
2022/05/04 03:23:47;;;;;;;17.37;7.83;;;;;;;5.04;100.00;61343.25;5090934;28;20503;-72
2022/05/04 03:26:14;;;;;;;12.17;7.63;;;;;;;5.10;100.00;61352.16;5090933;28;20558;-72
2022/05/04 03:28:41;;;;;;;20.10;10.87;;;;;;;4.93;100.00;61334.56;5091252;28;20449;-73
2022/05/04 03:31:09;;;;;;;18.17;8.90;;;;;;;5.20;100.00;61359.75;5090832;28;20494;-72
2022/05/04 03:33:35;;;;;;;20.27;7.20;;;;;;;5.28;100.00;61368.81;5090683;28;21067;-74
2022/05/04 03:36:06;;;;;;;16.20;8.40;;;;;;;5.52;100.00;61389.31;5091131;28;20454;-71
2022/05/04 03:38:35;;;;;;;17.00;12.30;;;;;;;5.61;100.00;61403.97;5090687;28;20485;-72
2022/05/04 03:41:02;;;;;;;13.37;7.83;;;;;;;5.61;100.00;61403.97;5090725;28;21095;-74
2022/05/04 03:43:29;;;;;;;17.97;6.90;;;;;;;5.68;100.00;61410.91;5091289;28;20454;-72
2022/05/04 03:45:56;;;;;;;8.20;6.10;;;;;;;5.69;100.00;61412.50;5090884;28;20794;-72
2022/05/04 03:48:23;;;;;;;15.43;7.37;;;;;;;5.70;100.00;61413.03;5090672;28;21017;-73
2022/05/04 03:50:50;;;;;;;10.00;6.30;;;;;;;5.77;100.00;61420.50;5089850;28;20464;-73
2022/05/04 03:53:19;;;;;;;9.43;4.60;;;;;;;5.42;100.00;61386.25;5090749;28;20442;-73
2022/05/04 03:55:46;;;;;;;8.20;5.47;;;;;;;5.63;100.00;61406.13;5089316;28;20437;-71
2022/05/04 03:58:13;;;;;;;9.40;6.07;;;;;;;5.69;100.00;61412.50;5090905;28;20522;-74
2022/05/04 04:00:40;;;;;;;12.83;6.03;;;;;;;5.65;100.00;61408.25;5091000;28;20797;-73
2022/05/04 04:03:07;;;;;;;11.53;6.17;;;;;;;5.62;100.00;61401.97;5090783;28;20434;-72
2022/05/04 04:05:34;;;;;;;17.00;6.07;;;;;;;5.65;100.00;61408.25;5090975;28;20442;-72
2022/05/04 04:08:01;;;;;;;15.90;6.27;;;;;;;5.69;100.00;61415.03;5090574;28;20594;-75
2022/05/04 04:10:29;;;;;;;16.27;7.97;;;;;;;5.66;100.00;61406.78;5090624;28;20550;-73
2022/05/04 04:12:56;;;;;;;30.80;11.20;;;;;;;5.66;100.00;61414.34;5090839;28;20457;-74
2022/05/04 04:15:24;;;;;;;16.40;9.80;;;;;;;5.73;100.00;61419.31;5090591;28;20910;-71
2022/05/04 04:17:51;;;;;;;13.07;9.27;;;;;;;5.93;100.00;61435.59;5091625;28;20441;-72
2022/05/04 04:23:02;;;;;;;18.63;10.30;;;;;;;6.17;100.00;61462.63;5094364;28;20428;-72
2022/05/04 04:25:32;;;;;;;13.27;10.07;;;;;;;6.06;100.00;61450.91;5093932;28;20457;-73
2022/05/04 04:28:00;;;;;;;17.97;9.80;;;;;;;5.60;100.00;61405.44;5094129;28;20928;-72
2022/05/04 04:30:27;;;;;;;14.30;8.93;;;;;;;5.98;100.00;61440.91;5094205;28;20457;-72
2022/05/04 04:32:54;;;;;;;14.43;8.70;;;;;;;6.10;100.00;61452.66;5093755;28;21065;-74
2022/05/04 04:35:20;;;;;;;11.57;8.27;;;;;;;6.09;100.00;61451.56;5093825;28;20498;-71
2022/05/04 04:37:48;;;;;;;10.20;7.43;;;;;;;6.31;100.00;61477.56;5094011;28;20448;-72
2022/05/04 04:40:15;;;;;;;11.10;7.50;;;;;;;6.30;100.00;61473.97;5093660;28;20961;-74
2022/05/04 04:42:43;;;;;;;10.30;7.83;;;;;;;6.39;100.00;61486.63;5093971;28;20442;-71
2022/05/04 04:45:11;;;;;;;14.60;8.23;;;;;;;6.47;100.00;61490.09;5093355;28;20498;-72
2022/05/04 04:47:38;;;;;;;11.67;8.03;;;;;;;6.67;100.00;61515.97;5093365;28;20503;-72
2022/05/04 04:50:06;;;;;;;18.03;8.40;;;;;;;6.78;100.00;61527.72;5093702;28;20438;-73
2022/05/04 04:52:33;;;;;;;9.37;7.80;;;;;;;6.81;100.00;61530.91;5093322;28;20438;-74
2022/05/04 04:55:00;;;;;;;12.53;6.87;;;;;;;6.37;100.00;61481.97;5093597;28;20507;-73
2022/05/04 04:57:26;;;;;;;15.57;7.20;;;;;;;6.95;100.00;61545.84;5093478;28;20525;-73
2022/05/04 04:59:55;;;;;;;8.67;6.40;;;;;;;7.17;100.00;61569.34;5093167;28;20511;-73
2022/05/04 05:02:21;;;;;;;16.40;7.60;;;;;;;7.26;100.00;61576.41;5093027;28;20550;-72
2022/05/04 05:04:48;;;;;;;11.57;6.37;;;;;;;7.55;100.00;61609.91;5093563;28;20511;-71
2022/05/04 05:07:18;;;;;;;14.27;6.30;;;;;;;7.79;100.00;61634.47;5093246;28;20458;-73
2022/05/04 05:09:45;;;;;;;14.93;6.90;;;;;;;7.96;100.00;61647.56;5093399;28;20441;-73
2022/05/04 05:12:13;;;;;;;14.50;7.37;;;;;;;8.11;100.00;61669.19;5092995;28;20952;-73
2022/05/04 05:17:25;;;;;;;13.73;7.40;;;;;;;8.10;100.00;61668.13;5093170;28;20425;-71
2022/05/04 05:19:51;;;;;;;13.30;7.87;;;;;;;8.25;100.00;61683.66;5092910;28;20453;-73
2022/05/04 05:22:18;;;;;;;13.87;8.13;;;;;;;8.12;100.00;61669.72;5093054;28;20572;-73
2022/05/04 05:24:45;;;;;;;35.03;9.20;;;;;;;8.20;100.00;61678.81;5093173;28;20461;-73
2022/05/04 05:27:12;;;;;;;13.57;7.80;;;;;;;6.45;100.00;61489.97;5092846;28;20944;-74
2022/05/04 05:29:38;;;;;;;11.40;7.83;;;;;;;7.93;100.00;61646.91;5091964;28;20461;-72
2022/05/04 05:32:06;;;;;;;21.13;10.77;;;;;;;8.16;100.00;61674.53;5093105;28;20519;-72
2022/05/04 05:34:35;;;;;;;26.13;11.93;;;;;;;8.40;100.00;61697.69;5092481;28;20538;-73
2022/05/04 05:37:02;;;;;;;21.43;9.33;;;;;;;8.14;100.00;61671.88;5092732;28;21009;-73
2022/05/04 05:39:29;;;;;;;21.77;7.97;;;;;;;8.59;100.00;61717.47;5092726;28;20438;-73
2022/05/04 05:41:55;;;;;;;13.70;8.37;;;;;;;9.16;100.00;61778.41;5092440;28;20477;-73
2022/05/04 05:44:22;;;;;;;17.30;8.47;;;;;;;9.08;100.00;61767.31;5092574;28;20456;-72
2022/05/04 05:46:49;;;;;;;15.80;8.47;;;;;;;8.45;100.00;61699.97;5092479;28;20445;-72
2022/05/04 05:49:16;;;;;;;18.67;9.03;;;;;;;9.64;100.00;61826.16;5092566;28;20504;-73
2022/05/04 05:51:44;;;;;;;18.80;9.40;;;;;;;9.58;100.00;61822.81;5092890;28;20446;-72
2022/05/04 05:54:11;;;;;;;16.87;10.23;;;;;;;9.70;100.00;61837.66;5092174;28;20442;-72
2022/05/04 05:56:38;;;;;;;25.77;12.10;;;;;;;9.79;100.00;61847.28;5092020;28;20495;-72
2022/05/04 05:59:05;;;;;;;24.67;12.40;;;;;;;10.14;100.00;61879.72;5092138;28;20529;-73
2022/05/04 06:01:32;;;;;;;25.97;12.53;;;;;;;10.60;100.00;61934.06;5092067;28;20488;-72
2022/05/04 06:03:59;;;;;;;16.77;9.33;;;;;;;10.82;100.00;61960.19;5092014;28;20442;-73
2022/05/04 06:06:26;;;;;;;17.47;8.80;;;;;;;11.10;100.00;61987.09;5091959;28;20215;-72
2022/05/04 06:08:54;;;;;;;19.10;8.17;;;;;;;11.40;100.00;62018.72;5091927;28;20270;-73
2022/05/04 06:11:21;;;;;;;14.73;7.57;;;;;;;11.85;100.00;62062.44;5091782;28;20204;-73
2022/05/04 06:13:52;;;;;;;14.53;9.40;;;;;;;12.11;100.00;62092.34;5091976;28;20568;-72
2022/05/04 06:16:18;;;;;;;15.33;7.90;;;;;;;12.26;100.00;62111.00;5092297;28;20196;-74
2022/05/04 06:18:45;;;;;;;20.93;9.90;;;;;;;12.22;100.00;62106.69;5092114;28;20196;-72
2022/05/04 06:21:13;;;;;;;16.77;8.47;;;;;;;12.46;100.00;62131.91;5091376;28;20668;-72
2022/05/04 06:23:40;;;;;;;19.87;9.73;;;;;;;12.16;100.00;62095.16;5091788;28;20612;-72
2022/05/04 06:26:08;;;;;;;18.00;9.57;;;;;;;12.08;100.00;62091.13;5091629;28;20216;-73
2022/05/04 06:28:35;;;;;;;20.23;8.80;;;;;;;12.77;100.00;62169.75;5091651;28;20264;-73
2022/05/04 06:36:30;;;;;;;10.93;7.70;;;;;;;12.34;100.00;62117.00;5091463;28;20203;-74
2022/05/04 06:38:57;;;;;;;20.13;7.60;;;;;;;13.01;100.00;62190.97;5091553;28;20670;-73
2022/05/04 06:41:25;;;;;;;13.30;7.30;;;;;;;13.35;100.00;62224.41;5091184;28;20231;-72
2022/05/04 06:43:51;;;;;;;11.30;6.70;;;;;;;13.05;100.00;62195.28;5091590;28;20196;-72
2022/05/04 06:46:20;;;;;;;11.83;7.10;;;;;;;13.07;100.00;62199.44;5091149;28;20585;-73
2022/05/04 06:48:48;;;;;;;11.37;7.23;;;;;;;13.26;100.00;62217.31;5091464;28;20214;-73
2022/05/04 06:51:15;;;;;;;9.30;6.70;;;;;;;13.47;100.00;62242.41;5091317;28;20203;-73
2022/05/04 06:53:42;;;;;;;19.43;7.77;;;;;;;13.34;100.00;62221.31;5091092;28;20249;-72
2022/05/04 06:56:10;;;;;;;10.43;6.40;;;;;;;13.79;100.00;62274.25;5091038;28;20257;-72
2022/05/04 06:58:38;;;;;;;9.60;6.67;;;;;;;13.90;100.00;62285.53;5091518;28;20288;-73
2022/05/04 07:01:07;;;;;;;10.10;6.83;;;;;;;13.19;100.00;62207.22;5091024;28;20283;-72
2022/05/04 07:03:33;;;;;;;13.17;7.00;;;;;;;13.41;100.00;62233.41;5091018;28;20196;-71
2022/05/04 07:06:00;;;;;;;13.00;7.27;;;;;;;12.93;100.00;62181.84;5091019;28;20252;-72
2022/05/04 07:08:27;;;;;;;12.60;7.27;;;;;;;13.94;100.00;62287.25;5090968;28;20702;-72
2022/05/04 07:10:54;;;;;;;13.60;6.93;;;;;;;14.18;100.00;62311.03;5090948;28;20666;-72
2022/05/04 07:13:21;;;;;;;13.67;7.00;;;;;;;14.46;100.00;62343.19;5090909;28;20191;-73
2022/05/04 07:15:49;;;;;;;10.10;7.20;;;;;;;14.80;100.00;62382.31;5091044;28;20199;-72
2022/05/04 07:18:16;;;;;;;11.57;8.40;;;;;;;14.82;100.00;62381.38;5091187;28;20290;-73
2022/05/04 07:20:43;;;;;;;12.90;8.03;;;;;;;14.75;100.00;62376.94;5091041;28;20226;-73
2022/05/04 07:23:10;;;;;;;13.37;8.10;;;;;;;14.49;100.00;62348.44;5091011;28;20231;-73
2022/05/04 07:25:36;;;;;;;10.87;7.93;;;;;;;14.59;100.00;62359.19;5090757;28;20399;-73
2022/05/04 07:28:03;;;;;;;13.37;8.20;;;;;;;14.97;100.00;62402.66;5090637;28;20195;-73
2022/05/04 07:30:30;;;;;;;10.93;8.03;;;;;;;14.83;100.00;62385.03;5091485;28;20196;-74
2022/05/04 07:32:59;;;;;;;14.50;8.27;;;;;;;13.91;100.00;62282.00;5090897;28;20303;-74
2022/05/04 07:35:26;;;;;;;15.23;8.57;;;;;;;13.71;100.00;62265.09;5090998;28;20195;-73
2022/05/04 07:37:53;;;;;;;14.40;8.43;;;;;;;15.12;100.00;62416.75;5090664;28;20199;-72
2022/05/04 07:43:04;;;;;;;14.73;7.97;;;;;;;15.79;100.00;62488.34;5090627;28;20767;-72
2022/05/04 07:45:31;;;;;;;12.73;7.70;;;;;;;16.03;100.00;62519.34;5091092;28;20586;-73
2022/05/04 07:47:59;;;;;;;15.13;9.23;;;;;;;16.31;100.00;62545.84;5090604;28;20328;-73
2022/05/04 07:50:28;;;;;;;15.03;9.23;;;;;;;15.97;100.00;62510.31;5090750;28;20651;-74
2022/05/04 07:52:55;;;;;;;15.97;9.90;;;;;;;15.31;100.00;62439.22;5091393;28;20647;-73
2022/05/04 07:55:22;;;;;;;15.97;9.30;;;;;;;15.85;100.00;62494.81;5094229;28;20244;-72
2022/05/04 07:57:49;;;;;;;19.77;10.17;;;;;;;16.21;100.00;62532.50;5094543;28;20242;-72
2022/05/04 08:05:48;;;;;;;12.73;9.50;;;;;;;16.46;100.00;62559.44;5094571;28;20203;-72
2022/05/04 08:08:15;;;;;;;15.30;10.50;;;;;;;16.41;100.00;62556.63;5093058;28;20524;-73
2022/05/04 08:10:42;;;;;;;23.30;11.40;;;;;;;16.82;100.00;62603.94;5094555;28;20628;-74
2022/05/04 08:13:08;;;;;;;14.20;9.63;;;;;;;17.09;100.00;62624.25;5094376;28;20206;-72
2022/05/04 08:15:37;;;;;;;22.03;10.50;;;;;;;17.58;100.00;62675.06;5094437;28;20625;-72
2022/05/04 08:18:05;;;;;;;22.77;10.80;;;;;;;17.49;100.00;62664.81;5094000;28;20196;-72
2022/05/04 08:20:32;;;;;;;18.40;11.07;;;;;;;17.19;100.00;62635.56;5094189;28;20284;-71
2022/05/04 08:23:00;;;;;;;17.07;10.07;;;;;;;17.26;100.00;62645.69;5094083;28;20223;-72
2022/05/04 08:25:27;;;;;;;14.37;9.47;;;;;;;17.79;100.00;62699.22;5093982;28;20227;-72
2022/05/04 08:27:54;;;;;;;24.07;10.57;;;;;;;17.95;100.00;62719.59;5094122;28;20196;-72
2022/05/04 08:30:21;;;;;;;9.87;6.83;;;;;;;18.36;100.00;62758.13;5093647;28;20204;-73
2022/05/04 08:32:48;;;;;;;12.47;7.03;;;;;;;18.21;100.00;62744.53;5093539;28;20670;-71
2022/05/04 08:35:18;;;;;;;18.07;5.80;;;;;;;18.97;100.00;62829.19;5093592;28;20238;-71
2022/05/04 08:37:45;;;;;;;10.30;6.13;;;;;;;19.16;100.00;62844.53;5094011;28;20264;-73
2022/05/04 08:40:13;;;;;;;11.27;6.40;;;;;;;19.50;100.00;62880.22;5093910;28;20199;-72
2022/05/04 08:42:42;;;;;;;9.47;5.20;;;;;;;19.53;100.00;62886.03;5093179;28;20269;-72
2022/05/04 08:45:11;;;;;;;11.97;5.80;;;;;;;19.01;100.00;62833.50;5093304;28;20279;-72
2022/05/04 08:47:40;;;;;;;6.80;4.83;;;;;;;19.22;100.00;62856.19;5093319;28;20684;-72
2022/05/04 08:50:12;;;;;;;10.13;5.13;;;;;;;19.45;100.00;62879.97;5093826;28;20238;-73
2022/05/04 08:52:51;;;;;;;8.97;3.73;;;;;;;19.63;100.00;62897.38;5093573;28;20236;-74
2022/05/04 08:55:19;;;;;;;14.20;3.70;;;;;;;19.53;100.00;62883.44;5093579;28;20200;-71
2022/05/04 08:57:46;;;;;;;7.07;3.70;;;;;;;19.78;100.00;62918.75;5093214;28;20203;-71
2022/05/04 09:00:14;;;;;;;7.83;3.53;;;;;;;19.53;100.00;62883.44;5093537;28;20206;-72
2022/05/04 09:02:40;;;;;;;7.17;3.57;;;;;;;18.45;100.00;62770.47;5093147;28;20281;-72
2022/05/04 09:05:15;;;;;;;4.43;2.80;;;;;;;19.58;100.00;62894.03;5093011;28;20276;-73
2022/05/04 09:07:44;;;;;;;9.20;3.60;;;;;;;20.15;100.00;62950.47;5093406;28;20198;-72
2022/05/04 09:10:16;;;;;;;4.47;2.83;;;;;;;20.20;100.00;62961.59;5093408;28;20253;-72
2022/05/04 09:12:43;;;;;;;4.87;2.80;;;;;;;20.68;100.00;63009.84;5092991;28;20256;-74
2022/05/04 09:15:18;;;;;;;6.77;3.00;;;;;;;20.87;100.00;63033.53;5092795;28;20196;-72
2022/05/04 09:17:45;;;;;;;8.07;2.77;;;;;;;20.59;100.00;62995.47;5093022;28;20195;-72
2022/05/04 09:22:57;;;;;;;3.63;2.50;;;;;;;20.36;100.00;62978.38;5093143;28;20608;-72
2022/05/04 09:25:25;;;;;;;3.77;2.60;;;;;;;20.52;100.00;62995.66;5092795;28;20219;-74
2022/05/04 09:27:52;;;;;;;3.10;2.30;;;;;;;20.68;100.00;63007.25;5093118;28;20250;-71
2022/05/04 09:30:24;;;;;;;3.43;2.37;;;;;;;20.84;100.00;63027.16;5092593;28;20681;-73
2022/05/04 09:32:51;;;;;;;4.37;2.33;;;;;;;21.13;100.00;63058.00;5092489;28;20694;-73
2022/05/04 09:35:19;;;;;;;5.47;2.57;;;;;;;21.58;100.00;63104.09;5092361;28;20196;-73
2022/05/04 09:46:04;;;;;;;3.90;2.67;;;;;;;21.52;100.00;63100.22;5092969;28;20202;-72
2022/05/04 09:48:33;;;;;;;4.73;2.60;;;;;;;21.28;100.00;63076.81;5092646;28;20195;-72
2022/05/04 09:51:03;;;;;;;3.67;2.20;;;;;;;21.83;100.00;63134.31;5092257;28;20196;-72
2022/05/04 09:53:30;;;;;;;5.37;2.30;;;;;;;21.74;100.00;63121.97;5092217;28;20662;-72
2022/05/04 09:56:01;;;;;;;3.27;2.30;;;;;;;21.94;100.00;63145.16;5092098;28;20268;-74
2022/05/04 09:58:29;;;;;;;3.53;2.40;;;;;;;22.38;92.96;63195.94;5092331;28;20207;-74
2022/05/04 10:00:58;;;;;;;2.77;2.50;;;;;;;22.42;87.48;63199.75;5092087;28;20196;-74
2022/05/04 10:03:26;;;;;;;3.30;2.50;;;;;;;22.64;93.63;63221.53;5091936;28;20635;-71
2022/05/04 10:05:54;;;;;;;7.57;3.13;;;;;;;22.34;91.68;63189.03;5092244;28;20223;-73
2022/05/04 10:08:22;;;;;;;5.70;2.57;;;;;;;21.49;100.00;63099.56;5092053;28;20226;-72
2022/05/04 10:10:50;;;;;;;3.50;3.00;;;;;;;21.29;100.00;63075.84;5091722;28;20662;-72
2022/05/04 10:13:19;;;;;;;3.67;2.40;;;;;;;21.37;100.00;63086.56;5091885;28;20203;-72
2022/05/04 10:15:49;;;;;;;4.47;2.40;;;;;;;21.83;100.00;63136.41;5091461;28;20257;-73
2022/05/04 10:18:21;;;;;;;4.97;2.27;;;;;;;22.30;100.00;63189.88;5091901;28;20204;-72
2022/05/04 10:20:55;;;;;;;2.70;2.50;;;;;;;22.74;89.30;63231.31;5091742;28;20199;-72
2022/05/04 10:23:25;;;;;;;6.67;2.60;;;;;;;23.13;84.34;63276.16;5091534;28;20223;-73
2022/05/04 10:25:52;;;;;;;5.13;2.73;;;;;;;23.49;88.19;63312.63;5091758;28;20216;-72
2022/05/04 10:28:20;;;;;;;6.60;2.27;;;;;;;23.75;83.68;63340.28;5091449;28;20207;-72
2022/05/04 10:30:47;;;;;;;7.17;2.57;;;;;;;23.25;77.06;63286.56;5091760;28;20195;-73
2022/05/04 10:33:17;;;;;;;8.33;3.20;;;;;;;22.15;83.43;63171.06;5091432;28;20292;-72
2022/05/04 10:35:45;;;;;;;4.73;2.20;;;;;;;22.53;82.09;63211.66;5091354;28;20199;-73
2022/05/04 10:38:15;;;;;;;3.43;2.27;;;;;;;22.81;81.94;63236.28;5091523;28;20256;-73
2022/05/04 10:40:45;;;;;;;5.37;2.00;;;;;;;23.10;80.61;63268.25;5091802;28;20680;-73
2022/05/04 10:43:13;;;;;;;7.50;2.70;;;;;;;23.27;88.30;63286.16;5091314;28;20698;-74
2022/05/04 10:45:43;;;;;;;4.33;2.10;;;;;;;23.78;83.50;63346.13;5091458;28;20200;-72
2022/05/04 10:48:23;;;;;;;4.33;2.13;;;;;;;23.89;79.68;63353.41;5091152;28;20195;-72
2022/05/04 10:50:53;;;;;;;3.27;2.27;;;;;;;24.03;72.64;63368.59;5091090;28;20675;-73
2022/05/04 10:53:21;;;;;;;4.17;2.30;;;;;;;23.95;72.72;63362.50;5091284;28;20200;-74
2022/05/04 10:55:56;;;;;;;3.20;2.07;;;;;;;24.18;66.99;63384.88;5091162;28;20708;-73
2022/05/04 10:58:39;;;;;;;5.80;2.50;;;;;;;24.02;63.63;63372.72;5090948;28;20631;-73
2022/05/04 11:01:21;;;;;;;6.10;2.63;;;;;;;23.82;70.01;63351.03;5091162;28;20650;-73
2022/05/04 11:03:57;;;;;;;4.00;2.30;;;;;;;23.64;67.75;63328.34;5091473;28;20263;-73
2022/05/04 11:06:25;;;;;;;4.63;2.30;;;;;;;23.76;76.19;63341.91;5091072;28;20625;-73
2022/05/04 11:08:55;;;;;;;2.00;1.90;;;;;;;23.06;73.08;63268.59;5090871;28;20244;-74
2022/05/04 11:11:22;;;;;;;6.50;2.57;;;;;;;23.53;76.88;63319.56;5090703;28;20202;-73
2022/05/04 11:13:49;;;;;;;6.20;2.50;;;;;;;23.68;72.02;63335.84;5091276;28;20643;-73
2022/05/04 11:16:17;;;;;;;2.90;2.40;;;;;;;23.84;73.67;63353.19;5090832;28;20229;-72
2022/05/04 11:18:44;;;;;;;3.07;2.30;;;;;;;24.01;71.81;63371.06;5091289;28;20583;-72
2022/05/04 11:21:12;;;;;;;3.20;2.07;;;;;;;24.19;68.21;63385.97;5091129;28;20199;-74
2022/05/04 11:23:40;;;;;;;4.13;2.53;;;;;;;24.73;68.57;63451.34;5090829;28;20227;-73
2022/05/04 11:26:16;;;;;;;4.60;2.10;;;;;;;25.09;69.04;63487.81;5090974;28;20694;-72
2022/05/04 11:28:43;;;;;;;5.67;2.40;;;;;;;24.47;68.44;63415.28;5093251;28;20713;-73
2022/05/04 11:31:12;;;;;;;5.20;2.07;;;;;;;24.27;71.21;63399.31;5095206;28;20196;-73
2022/05/04 11:33:41;;;;;;;4.27;2.47;;;;;;;24.39;67.41;63412.31;5095114;28;20232;-74
2022/05/04 11:36:09;;;;;;;4.27;2.20;;;;;;;23.63;66.22;63327.81;5095074;28;20233;-73
2022/05/04 11:38:35;;;;;;;4.00;2.10;;;;;;;23.50;67.70;63313.72;5095096;28;20283;-74
2022/05/04 11:41:02;;;;;;;5.93;2.40;;;;;;;22.80;71.28;63235.22;5094793;28;20268;-72
2022/05/04 11:43:34;;;;;;;4.90;2.23;;;;;;;23.55;69.88;63319.13;5093371;28;20227;-73
2022/05/04 11:46:06;;;;;;;3.43;1.97;;;;;;;23.22;67.05;63280.72;5094693;28;20203;-73
2022/05/04 11:48:33;;;;;;;7.80;2.40;;;;;;;22.81;67.12;63241.47;5094375;28;20195;-73
2022/05/04 11:51:02;;;;;;;5.50;2.20;;;;;;;22.55;71.84;63208.63;5094917;28;20206;-74
2022/05/04 11:53:30;;;;;;;4.40;2.00;;;;;;;22.17;70.82;63170.63;5094285;28;20265;-74
2022/05/04 11:55:59;;;;;;;2.50;1.80;;;;;;;21.77;75.12;63129.88;5094685;28;20242;-74
2022/05/04 11:58:27;;;;;;;7.10;2.60;;;;;;;21.66;83.54;63117.97;5094339;28;20677;-72
2022/05/04 12:00:54;;;;;;;5.53;2.43;;;;;;;21.56;86.09;63101.94;5094483;28;20282;-73
2022/05/04 12:03:23;;;;;;;6.97;2.97;;;;;;;21.95;87.61;63149.38;5094217;28;20231;-73
2022/05/04 12:05:51;;;;;;;9.30;2.50;;;;;;;22.89;81.30;63244.97;5094455;28;20257;-72
2022/05/04 12:08:20;;;;;;;2.57;2.00;;;;;;;23.72;79.08;63337.56;5094194;28;20719;-73
2022/05/04 12:10:48;;;;;;;3.23;2.17;;;;;;;24.10;72.85;63376.22;5094399;28;20264;-72